Time;durP1;ratioP1;P1;durP2;ratioP2;P2;SDS_P1;SDS_P2;PMS_P1;PMS_P2;Temp;Humidity;BMP_temperature;BMP_pressure;BME280_temperature;BME280_humidity;BME280_pressure;Samples;Min_cycle;Max_cycle;Signal;HPM_P1;HPM_P2
2022/12/01 00:01:12;;;;;;;25.65;13.82;;;-2.20;99.90;;;;;;5032508;28;20050;-81
2022/12/01 00:03:40;;;;;;;28.50;13.65;;;-2.20;99.90;;;;;;5025450;28;20469;-78
2022/12/01 00:06:11;;;;;;;25.65;14.00;;;-2.30;99.90;;;;;;5027776;28;20246;-80
2022/12/01 00:08:40;;;;;;;26.45;13.82;;;-2.30;99.90;;;;;;5013467;28;20129;-79
2022/12/01 00:11:10;;;;;;;26.10;13.30;;;-2.30;99.90;;;;;;5023253;28;20421;-80
2022/12/01 00:13:38;;;;;;;30.20;14.32;;;-2.30;99.90;;;;;;5033071;28;20434;-80
2022/12/01 00:16:13;;;;;;;29.63;14.82;;;-2.20;99.90;;;;;;5033027;28;20048;-80
2022/12/01 00:18:40;;;;;;;28.17;14.48;;;-2.20;99.90;;;;;;5028326;28;20426;-81
2022/12/01 00:21:14;;;;;;;26.58;13.98;;;-2.20;99.90;;;;;;5031134;28;20140;-80
2022/12/01 00:23:46;;;;;;;24.83;13.13;;;-2.20;99.90;;;;;;5031672;28;20053;-79
2022/12/01 00:26:13;;;;;;;25.40;13.50;;;-2.20;99.90;;;;;;5031561;28;20053;-80
2022/12/01 00:28:41;;;;;;;25.30;13.20;;;-2.30;99.90;;;;;;5031904;28;20045;-79
2022/12/01 00:31:09;;;;;;;27.63;14.43;;;-2.30;99.90;;;;;;5032945;28;20049;-79
2022/12/01 00:33:37;;;;;;;29.45;13.95;;;-2.20;99.90;;;;;;5031286;28;20115;-80
2022/12/01 00:36:06;;;;;;;28.15;12.98;;;-2.10;99.90;;;;;;5031155;28;20501;-79
2022/12/01 00:38:35;;;;;;;28.35;14.60;;;-2.20;99.90;;;;;;5032053;28;20123;-81
2022/12/01 00:41:04;;;;;;;28.52;13.23;;;-2.20;99.90;;;;;;5032930;28;20156;-82
2022/12/01 00:43:32;;;;;;;29.23;14.20;;;-2.20;99.90;;;;;;5032720;28;20057;-81
2022/12/01 00:45:59;;;;;;;34.17;13.80;;;-2.20;99.90;;;;;;5033111;28;20081;-80
2022/12/01 00:48:27;;;;;;;29.95;13.93;;;-2.30;99.90;;;;;;5047445;28;20567;-80
2022/12/01 00:50:55;;;;;;;26.83;13.88;;;-2.30;99.90;;;;;;5032611;28;20084;-81
2022/12/01 00:53:23;;;;;;;28.38;14.15;;;-2.40;99.90;;;;;;5031507;28;20053;-81
2022/12/01 00:55:52;;;;;;;27.65;14.43;;;-2.40;99.90;;;;;;5013637;28;20079;-81
2022/12/01 00:58:22;;;;;;;25.48;13.32;;;-2.40;99.90;;;;;;5031853;28;20137;-80
2022/12/01 01:00:50;;;;;;;27.67;13.77;;;-2.30;99.90;;;;;;5032250;28;20165;-81
2022/12/01 01:03:18;;;;;;;30.38;13.80;;;-2.30;99.90;;;;;;5029573;28;20502;-80
2022/12/01 01:05:45;;;;;;;31.45;14.35;;;-2.30;99.90;;;;;;5029049;28;20056;-81
2022/12/01 01:08:14;;;;;;;28.98;14.63;;;-2.20;99.90;;;;;;5032286;28;20108;-80
2022/12/01 01:10:45;;;;;;;28.40;13.85;;;-2.20;99.90;;;;;;5030062;28;20061;-80
2022/12/01 01:13:14;;;;;;;25.13;14.25;;;-2.30;99.90;;;;;;5031158;28;20140;-80
2022/12/01 01:15:43;;;;;;;29.85;15.45;;;-2.20;99.90;;;;;;4994556;28;20078;-80
2022/12/01 01:18:11;;;;;;;30.25;14.52;;;-2.20;99.90;;;;;;5012330;28;20046;-81
2022/12/01 01:20:39;;;;;;;27.77;14.10;;;-2.20;99.90;;;;;;5012103;28;20387;-80
2022/12/01 01:23:06;;;;;;;28.67;14.57;;;-2.20;99.90;;;;;;5018153;28;20077;-82
2022/12/01 01:25:34;;;;;;;30.23;14.43;;;-2.20;99.90;;;;;;5031967;28;20140;-80
2022/12/01 01:28:02;;;;;;;31.13;14.57;;;-2.20;99.90;;;;;;5031714;28;20045;-81
2022/12/01 01:30:29;;;;;;;24.98;13.15;;;-2.30;99.90;;;;;;5031797;28;20132;-80
2022/12/01 01:32:59;;;;;;;29.13;13.82;;;-2.30;99.90;;;;;;5031490;28;20045;-80
2022/12/01 01:35:27;;;;;;;28.02;13.85;;;-2.40;99.90;;;;;;5032050;28;20114;-80
2022/12/01 01:37:54;;;;;;;26.67;13.70;;;-2.40;99.90;;;;;;5030632;28;20049;-80
2022/12/01 01:40:22;;;;;;;30.92;16.23;;;-2.40;99.90;;;;;;5030887;28;20072;-79
2022/12/01 01:42:49;;;;;;;28.20;13.50;;;-2.40;99.90;;;;;;5030793;28;20057;-79
2022/12/01 01:45:21;;;;;;;27.48;13.32;;;-2.40;99.90;;;;;;5031306;28;20069;-79
2022/12/01 01:47:52;;;;;;;25.73;13.75;;;-2.30;99.90;;;;;;5028891;28;20081;-80
2022/12/01 01:50:25;;;;;;;28.25;13.48;;;-2.30;99.90;;;;;;5061882;28;20057;-80
2022/12/01 01:52:59;;;;;;;42.22;15.18;;;-2.30;99.90;;;;;;5031110;28;20089;-80
2022/12/01 01:55:27;;;;;;;27.67;14.32;;;-2.20;99.90;;;;;;5031378;28;20111;-81
2022/12/01 01:57:54;;;;;;;28.65;14.25;;;-2.20;99.90;;;;;;5029751;28;20060;-80
2022/12/01 02:00:23;;;;;;;25.55;14.00;;;-2.30;99.90;;;;;;5030145;28;20057;-80
2022/12/01 02:02:51;;;;;;;28.75;14.77;;;-2.30;99.90;;;;;;5030881;28;20553;-80
2022/12/01 02:05:24;;;;;;;27.67;13.77;;;-2.30;99.90;;;;;;5029269;28;20160;-80
2022/12/01 02:07:52;;;;;;;29.15;15.57;;;-2.30;99.90;;;;;;5029964;28;20056;-80
2022/12/01 02:10:22;;;;;;;31.30;14.23;;;-2.40;99.90;;;;;;5029427;28;20417;-80
2022/12/01 02:13:08;;;;;;;25.00;14.68;;;-2.40;99.90;;;;;;5030833;28;20140;-80
2022/12/01 02:15:44;;;;;;;26.80;14.02;;;-2.40;99.90;;;;;;5062649;28;20076;-79
2022/12/01 02:18:26;;;;;;;31.02;14.25;;;-2.50;99.90;;;;;;5062221;28;20057;-80
2022/12/01 02:21:45;;;;;;;32.92;14.35;;;-2.50;99.90;;;;;;5031067;28;20049;-80
2022/12/01 02:24:51;;;;;;;36.60;14.02;;;-2.40;99.90;;;;;;5035835;28;20358;-80
2022/12/01 02:27:31;;;;;;;25.50;14.23;;;-2.40;99.90;;;;;;5039204;28;20059;-80
2022/12/01 02:30:11;;;;;;;31.05;14.70;;;-2.40;99.90;;;;;;5046158;28;20041;-80
2022/12/01 02:33:00;;;;;;;32.58;14.65;;;-2.40;99.90;;;;;;5013083;28;20045;-79
2022/12/01 02:35:36;;;;;;;31.92;14.88;;;-2.40;99.90;;;;;;5028648;28;20103;-79
2022/12/01 02:38:20;;;;;;;32.08;15.48;;;-2.40;99.90;;;;;;5029257;28;20057;-82
2022/12/01 02:40:55;;;;;;;32.05;16.00;;;-2.40;99.90;;;;;;5030918;28;20560;-80
2022/12/01 02:43:32;;;;;;;32.42;16.05;;;-2.40;99.90;;;;;;5030732;28;20049;-79
2022/12/01 02:46:07;;;;;;;33.35;16.17;;;-2.40;99.90;;;;;;5029221;28;20053;-76
2022/12/01 02:48:39;;;;;;;31.40;16.15;;;-2.40;99.90;;;;;;5015687;28;20298;-75
2022/12/01 02:51:11;;;;;;;33.38;16.80;;;-2.40;99.90;;;;;;5030139;28;20123;-76
2022/12/01 02:53:39;;;;;;;35.13;16.98;;;-2.40;99.90;;;;;;5030141;28;20161;-76
2022/12/01 02:56:11;;;;;;;32.60;17.10;;;-2.30;99.90;;;;;;5030627;28;20064;-75
2022/12/01 02:58:38;;;;;;;32.73;17.17;;;-2.30;99.90;;;;;;5032660;28;20056;-75
2022/12/01 03:01:51;;;;;;;29.50;16.00;;;-2.30;99.90;;;;;;5034343;28;20041;-75
2022/12/01 03:04:46;;;;;;;29.17;15.73;;;-2.30;99.90;;;;;;5011698;28;20050;-76
2022/12/01 03:07:32;;;;;;;34.03;16.75;;;-2.30;99.90;;;;;;5023407;28;20531;-74
2022/12/01 03:10:14;;;;;;;30.60;15.93;;;-2.30;99.90;;;;;;5033936;28;20060;-75
2022/12/01 03:12:59;;;;;;;31.33;16.08;;;-2.40;99.90;;;;;;5033790;28;20464;-74
2022/12/01 03:15:34;;;;;;;34.13;15.70;;;-2.40;99.90;;;;;;5032181;28;20057;-74
2022/12/01 03:18:12;;;;;;;31.02;15.55;;;-2.50;99.90;;;;;;5033590;28;20049;-74
2022/12/01 03:20:49;;;;;;;30.33;15.35;;;-2.50;99.90;;;;;;5032588;28;20398;-75
2022/12/01 03:23:21;;;;;;;32.63;14.82;;;-2.40;99.90;;;;;;5032228;28;20099;-75
2022/12/01 03:25:52;;;;;;;35.17;18.15;;;-2.50;99.90;;;;;;5033355;28;20544;-75
2022/12/01 03:28:28;;;;;;;34.45;14.90;;;-2.50;99.90;;;;;;5033786;28;20099;-73
2022/12/01 03:31:02;;;;;;;28.67;14.07;;;-2.60;99.90;;;;;;5032020;28;20045;-73
2022/12/01 03:33:35;;;;;;;36.25;16.73;;;-2.60;99.90;;;;;;5048876;28;20461;-75
2022/12/01 03:36:10;;;;;;;30.65;15.45;;;-2.50;99.90;;;;;;5033189;28;20053;-75
2022/12/01 03:38:39;;;;;;;36.75;17.33;;;-2.40;99.90;;;;;;5060221;28;20336;-76
2022/12/01 03:41:12;;;;;;;40.78;17.95;;;-2.40;99.90;;;;;;5013707;28;20050;-75
2022/12/01 03:43:46;;;;;;;39.50;18.35;;;-2.50;99.90;;;;;;5011973;28;20050;-76
2022/12/01 03:46:20;;;;;;;35.55;17.45;;;-2.40;99.90;;;;;;5014866;28;20050;-74
2022/12/01 03:48:47;;;;;;;34.75;16.30;;;-2.40;99.90;;;;;;5033031;28;20045;-74
2022/12/01 03:51:23;;;;;;;37.50;17.40;;;-2.30;99.90;;;;;;5031581;28;20053;-72
2022/12/01 03:53:58;;;;;;;33.08;17.02;;;-2.30;99.90;;;;;;5033096;28;20630;-73
2022/12/01 03:56:32;;;;;;;40.08;18.55;;;-2.40;99.90;;;;;;5032712;28;20064;-73
2022/12/01 03:59:03;;;;;;;35.40;16.85;;;-2.30;99.90;;;;;;5032889;28;20076;-73
2022/12/01 04:01:32;;;;;;;38.30;17.55;;;-2.30;99.90;;;;;;5033162;28;20064;-73
2022/12/01 04:04:06;;;;;;;36.75;17.00;;;-2.30;99.90;;;;;;5031159;28;20516;-74
2022/12/01 04:06:36;;;;;;;36.83;18.55;;;-2.40;99.90;;;;;;5033307;28;20099;-81
2022/12/01 04:09:04;;;;;;;33.00;16.95;;;-2.30;99.90;;;;;;5032079;28;20140;-79
2022/12/01 04:14:15;;;;;;;36.63;16.30;;;-2.30;99.90;;;;;;5001640;28;20057;-78
2022/12/01 04:16:43;;;;;;;33.47;16.02;;;-2.30;99.90;;;;;;5032068;28;20049;-78
2022/12/01 04:19:11;;;;;;;40.13;17.38;;;-2.30;99.90;;;;;;5031144;28;20501;-78
2022/12/01 04:21:40;;;;;;;37.38;16.90;;;-2.40;99.90;;;;;;5032470;28;20073;-77
2022/12/01 04:24:09;;;;;;;31.63;15.88;;;-2.40;99.90;;;;;;5032547;28;20127;-78
2022/12/01 04:26:38;;;;;;;38.40;17.00;;;-2.40;99.90;;;;;;5031103;28;20042;-79
2022/12/01 04:29:09;;;;;;;32.90;16.17;;;-2.40;99.90;;;;;;5032324;28;20114;-78
2022/12/01 04:31:41;;;;;;;35.45;15.88;;;-2.40;99.90;;;;;;5030962;28;20053;-78
2022/12/01 04:34:10;;;;;;;45.17;16.27;;;-2.30;99.90;;;;;;5014772;28;20045;-78
2022/12/01 04:36:39;;;;;;;37.95;16.73;;;-2.30;99.90;;;;;;5032327;28;20366;-77
2022/12/01 04:39:06;;;;;;;33.80;15.00;;;-2.20;99.90;;;;;;5030986;28;20117;-78
2022/12/01 04:41:34;;;;;;;38.35;15.93;;;-2.20;99.90;;;;;;5030936;28;20490;-78
2022/12/01 04:44:01;;;;;;;39.33;15.75;;;-2.20;99.90;;;;;;5012234;28;20111;-77
2022/12/01 04:46:28;;;;;;;30.42;15.70;;;-2.20;99.90;;;;;;5021077;28;20046;-78
2022/12/01 04:48:56;;;;;;;32.28;15.57;;;-2.30;99.90;;;;;;5028173;28;20055;-77
2022/12/01 04:51:24;;;;;;;40.35;16.65;;;-2.30;99.90;;;;;;5030516;28;20059;-77
2022/12/01 04:53:57;;;;;;;32.88;15.43;;;-2.30;99.90;;;;;;5030793;28;20045;-78
2022/12/01 04:56:26;;;;;;;35.85;15.70;;;-2.30;99.90;;;;;;5029183;28;20075;-78
2022/12/01 04:58:53;;;;;;;57.60;27.05;;;-2.30;99.90;;;;;;5031641;28;20056;-78
2022/12/01 05:01:21;;;;;;;45.78;18.73;;;-2.30;99.90;;;;;;5030701;28;20057;-77
2022/12/01 05:03:49;;;;;;;39.67;17.83;;;-2.20;99.90;;;;;;5011039;28;21276;-76
2022/12/01 05:06:19;;;;;;;43.78;17.30;;;-2.20;99.90;;;;;;5030433;28;20045;-73
2022/12/01 05:08:47;;;;;;;30.15;15.73;;;-2.20;99.90;;;;;;5030608;28;20049;-74
2022/12/01 05:11:17;;;;;;;41.90;16.75;;;-2.10;99.90;;;;;;5031356;28;20510;-74
2022/12/01 05:13:47;;;;;;;40.55;16.42;;;-2.20;99.90;;;;;;5029153;28;20050;-74
2022/12/01 05:16:17;;;;;;;44.50;17.63;;;-2.20;99.90;;;;;;5021061;28;20058;-74
2022/12/01 05:18:49;;;;;;;37.92;16.10;;;-2.20;99.90;;;;;;5039467;28;20257;-76
2022/12/01 05:21:16;;;;;;;44.03;16.02;;;-2.20;99.90;;;;;;5031316;28;20076;-74
2022/12/01 05:24:25;;;;;;;39.58;17.05;;;-2.20;99.90;;;;;;5011545;28;20457;-74
2022/12/01 05:26:54;;;;;;;33.15;14.90;;;-2.20;99.90;;;;;;5019922;28;20148;-77
2022/12/01 05:29:21;;;;;;;39.08;15.95;;;-2.20;99.90;;;;;;5010188;28;20072;-77
2022/12/01 05:31:49;;;;;;;44.75;16.35;;;-2.20;99.90;;;;;;5024889;28;20071;-76
2022/12/01 05:34:16;;;;;;;46.33;19.05;;;-2.20;99.90;;;;;;5027257;28;20049;-77
2022/12/01 05:36:44;;;;;;;44.42;19.20;;;-2.30;99.90;;;;;;5026349;28;20062;-76
2022/12/01 05:39:11;;;;;;;39.97;18.02;;;-2.30;99.90;;;;;;5030839;28;20122;-75
2022/12/01 05:41:38;;;;;;;46.53;17.17;;;-2.30;99.90;;;;;;5031141;28;20049;-74
2022/12/01 05:44:07;;;;;;;46.28;17.42;;;-2.30;99.90;;;;;;5029478;28;20061;-72
2022/12/01 05:46:34;;;;;;;40.13;17.02;;;-2.30;99.90;;;;;;5023545;28;20091;-74
2022/12/01 05:49:01;;;;;;;47.47;18.67;;;-2.50;99.90;;;;;;5023744;28;20052;-74
2022/12/01 05:51:29;;;;;;;38.75;17.55;;;-2.40;99.90;;;;;;5062450;28;20076;-74
2022/12/01 05:53:58;;;;;;;44.05;18.10;;;-2.40;99.90;;;;;;5030718;28;20426;-73
2022/12/01 05:56:26;;;;;;;41.70;18.88;;;-2.50;99.90;;;;;;5056846;28;20050;-74
2022/12/01 05:58:53;;;;;;;36.83;16.95;;;-2.50;99.90;;;;;;5017723;28;20511;-77
2022/12/01 06:01:22;;;;;;;41.28;18.73;;;-2.50;99.90;;;;;;5026922;28;20050;-76
2022/12/01 06:03:50;;;;;;;40.72;17.25;;;-2.50;99.90;;;;;;5038931;28;20131;-77
2022/12/01 06:06:17;;;;;;;37.60;17.40;;;-2.50;99.90;;;;;;5022321;28;20115;-73
2022/12/01 06:08:45;;;;;;;44.25;18.35;;;-2.50;99.90;;;;;;5028638;28;20087;-73
2022/12/01 06:11:12;;;;;;;608.05;289.55;;;-2.50;99.90;;;;;;5030739;28;20050;-75
2022/12/01 06:13:40;;;;;;;39.85;18.85;;;-2.50;99.90;;;;;;5030468;28;20045;-74
2022/12/01 06:16:08;;;;;;;38.75;18.13;;;-2.40;99.90;;;;;;5030535;28;20057;-78
2022/12/01 06:18:39;;;;;;;42.72;16.48;;;-2.50;99.90;;;;;;5030823;28;20052;-77
2022/12/01 06:21:07;;;;;;;56.08;21.52;;;-2.50;99.90;;;;;;5020028;28;20096;-76
2022/12/01 06:23:35;;;;;;;40.60;18.38;;;-2.50;99.90;;;;;;5009346;28;20430;-77
2022/12/01 06:26:02;;;;;;;37.22;17.70;;;-2.50;99.90;;;;;;5011074;28;20053;-77
2022/12/01 06:28:29;;;;;;;37.22;16.65;;;-2.50;99.90;;;;;;5031965;28;20389;-76
2022/12/01 06:30:57;;;;;;;41.90;17.67;;;-2.50;99.90;;;;;;5025722;28;20492;-76
2022/12/01 06:33:24;;;;;;;39.55;18.00;;;-2.50;99.90;;;;;;5014141;28;20053;-76
2022/12/01 06:35:58;;;;;;;38.47;17.95;;;-2.50;99.90;;;;;;5033677;28;20072;-76
2022/12/01 06:38:26;;;;;;;35.10;17.25;;;-2.50;99.90;;;;;;5032442;28;20054;-77
2022/12/01 06:40:54;;;;;;;40.20;16.50;;;-2.50;99.90;;;;;;5034343;28;20053;-76
2022/12/01 06:43:21;;;;;;;41.60;17.65;;;-2.50;99.90;;;;;;5015709;28;20083;-71
2022/12/01 06:45:49;;;;;;;36.85;16.98;;;-2.50;99.90;;;;;;5034001;28;20960;-72
2022/12/01 06:48:16;;;;;;;40.97;17.10;;;-2.60;99.90;;;;;;5030419;28;20139;-72
2022/12/01 06:50:43;;;;;;;33.35;17.58;;;-2.50;99.90;;;;;;5031619;28;20517;-71
2022/12/01 06:53:12;;;;;;;32.20;16.65;;;-2.40;99.90;;;;;;5030206;28;20041;-73
2022/12/01 06:55:40;;;;;;;39.50;18.52;;;-2.30;99.90;;;;;;5032408;28;20041;-73
2022/12/01 06:58:07;;;;;;;38.50;17.15;;;-2.30;99.90;;;;;;5030704;28;20789;-73
2022/12/01 07:00:35;;;;;;;166.32;76.15;;;-2.30;99.90;;;;;;5029666;28;20168;-73
2022/12/01 07:03:03;;;;;;;43.03;19.27;;;-2.30;99.90;;;;;;5013705;28;20554;-73
2022/12/01 07:05:33;;;;;;;35.58;17.02;;;-2.40;99.90;;;;;;5032101;28;20041;-73
2022/12/01 07:08:01;;;;;;;40.28;16.67;;;-2.40;99.90;;;;;;5030159;28;20041;-77
2022/12/01 07:10:29;;;;;;;33.25;16.55;;;-2.40;99.90;;;;;;5030108;28;20114;-77
2022/12/01 07:12:57;;;;;;;42.92;17.38;;;-2.40;99.90;;;;;;5027847;28;20575;-77
2022/12/01 07:15:24;;;;;;;45.75;19.38;;;-2.50;99.90;;;;;;5031814;28;20504;-77
2022/12/01 07:17:51;;;;;;;51.63;17.98;;;-2.50;99.90;;;;;;5031973;28;20041;-76
2022/12/01 07:20:19;;;;;;;43.38;18.58;;;-2.50;99.90;;;;;;5033535;28;20048;-77
2022/12/01 07:22:46;;;;;;;44.28;18.30;;;-2.50;99.90;;;;;;5031415;28;20539;-76
2022/12/01 07:25:13;;;;;;;44.63;17.35;;;-2.50;99.90;;;;;;5028203;28;20517;-76
2022/12/01 07:27:42;;;;;;;44.13;18.65;;;-2.50;99.90;;;;;;5028166;28;20541;-75
2022/12/01 07:30:10;;;;;;;49.83;19.10;;;-2.50;99.90;;;;;;5027485;28;20045;-74
2022/12/01 07:32:38;;;;;;;46.75;17.67;;;-2.60;99.90;;;;;;5028395;28;20597;-76
2022/12/01 07:35:09;;;;;;;50.70;18.67;;;-2.60;99.90;;;;;;5031761;28;20136;-77
2022/12/01 07:37:36;;;;;;;51.45;16.77;;;-2.60;99.90;;;;;;5033231;28;20768;-77
2022/12/01 07:40:10;;;;;;;44.90;18.15;;;-2.60;99.90;;;;;;5027426;28;20085;-76
2022/12/01 07:42:42;;;;;;;44.83;19.25;;;-2.50;99.90;;;;;;5014602;28;20053;-77
2022/12/01 07:45:10;;;;;;;46.72;18.70;;;-2.50;99.90;;;;;;5030019;28;20069;-76
2022/12/01 07:47:37;;;;;;;46.05;17.45;;;-2.50;99.90;;;;;;5032342;28;20141;-77
2022/12/01 07:50:07;;;;;;;39.42;17.45;;;-2.50;99.90;;;;;;5026860;28;20135;-78
2022/12/01 07:52:34;;;;;;;566.13;313.65;;;-2.40;99.90;;;;;;5049539;28;20063;-75
2022/12/01 07:55:01;;;;;;;51.95;20.42;;;-2.30;99.90;;;;;;5029604;28;20091;-76
2022/12/01 07:57:30;;;;;;;40.15;18.80;;;-2.20;99.90;;;;;;5025698;28;20053;-79
2022/12/01 08:00:00;;;;;;;39.83;19.80;;;-2.20;99.90;;;;;;5031404;28;20076;-74
2022/12/01 08:02:27;;;;;;;44.67;19.02;;;-2.20;99.90;;;;;;5029341;28;20069;-73
2022/12/01 08:04:55;;;;;;;50.13;19.27;;;-2.20;99.90;;;;;;5029997;28;20413;-74
2022/12/01 08:07:22;;;;;;;54.80;20.27;;;-2.20;99.90;;;;;;5031257;28;20435;-74
2022/12/01 08:09:49;;;;;;;49.35;21.08;;;-2.20;99.90;;;;;;5026448;28;20053;-74
2022/12/01 08:12:17;;;;;;;41.78;19.00;;;-2.20;99.90;;;;;;5031360;28;20057;-75
2022/12/01 08:14:44;;;;;;;42.60;20.75;;;-2.20;99.90;;;;;;5031493;28;20076;-76
2022/12/01 08:17:13;;;;;;;48.05;22.00;;;-2.20;99.90;;;;;;5043208;28;20877;-75
2022/12/01 08:19:40;;;;;;;52.15;20.92;;;-2.20;99.90;;;;;;5036066;28;20045;-76
2022/12/01 08:22:08;;;;;;;49.55;20.50;;;-2.10;99.90;;;;;;5031050;28;20115;-76
2022/12/01 08:24:35;;;;;;;47.95;22.05;;;-2.10;99.90;;;;;;5031111;28;20053;-77
2022/12/01 08:27:03;;;;;;;41.50;21.73;;;-2.20;99.90;;;;;;5030495;28;20049;-78
2022/12/01 08:29:30;;;;;;;49.75;21.95;;;-2.20;99.90;;;;;;5028807;28;20044;-74
2022/12/01 08:31:58;;;;;;;52.05;21.98;;;-2.20;99.90;;;;;;5029304;28;20065;-74
2022/12/01 08:34:27;;;;;;;51.45;22.92;;;-2.10;99.90;;;;;;5025940;28;20045;-74
2022/12/01 08:36:54;;;;;;;50.70;22.23;;;-2.20;99.90;;;;;;5007392;28;20115;-75
2022/12/01 08:39:22;;;;;;;46.20;22.58;;;-2.10;99.90;;;;;;5029545;28;20045;-75
2022/12/01 08:41:49;;;;;;;45.72;19.38;;;-2.10;99.90;;;;;;5030841;28;20387;-75
2022/12/01 08:44:17;;;;;;;49.25;21.30;;;-2.10;99.90;;;;;;5031214;28;20054;-74
2022/12/01 08:46:44;;;;;;;39.50;21.15;;;-2.10;99.90;;;;;;5031333;28;20056;-76
2022/12/01 08:49:12;;;;;;;41.88;18.45;;;-2.00;99.90;;;;;;5030528;28;20107;-76
2022/12/01 08:51:40;;;;;;;48.65;19.35;;;-2.00;99.90;;;;;;5029226;28;20060;-73
2022/12/01 08:54:11;;;;;;;39.17;19.38;;;-2.00;99.90;;;;;;5043169;28;20518;-75
2022/12/01 08:56:40;;;;;;;44.22;20.05;;;-2.00;99.90;;;;;;5030893;28;20065;-75
2022/12/01 08:59:09;;;;;;;49.55;19.08;;;-2.00;99.90;;;;;;5030796;28;20056;-75
2022/12/01 09:01:50;;;;;;;44.90;20.25;;;-2.00;99.90;;;;;;5062927;28;20072;-74
2022/12/01 09:04:19;;;;;;;44.90;18.95;;;-2.00;99.90;;;;;;5015828;28;20115;-73
2022/12/01 09:06:51;;;;;;;46.78;18.83;;;-1.90;99.90;;;;;;5013007;28;20127;-74
2022/12/01 09:09:21;;;;;;;48.40;19.92;;;-1.80;99.90;;;;;;5030690;28;20068;-73
2022/12/01 09:11:51;;;;;;;52.47;19.58;;;-1.80;99.90;;;;;;5045427;28;20549;-74
2022/12/01 09:14:26;;;;;;;47.97;19.50;;;-1.80;99.90;;;;;;5029196;28;20057;-73
2022/12/01 09:16:53;;;;;;;49.40;21.85;;;-1.80;99.90;;;;;;5030615;28;20088;-74
2022/12/01 09:19:22;;;;;;;43.70;20.10;;;-1.80;99.90;;;;;;5024937;28;20049;-73
2022/12/01 09:21:51;;;;;;;45.70;19.33;;;-1.70;99.90;;;;;;5026997;28;20497;-74
2022/12/01 09:24:18;;;;;;;52.40;19.92;;;-1.70;99.90;;;;;;5030364;28;20065;-79
2022/12/01 09:26:46;;;;;;;45.83;18.92;;;-1.70;99.90;;;;;;5030664;28;20140;-78
2022/12/01 09:29:16;;;;;;;50.92;20.90;;;-1.70;99.90;;;;;;5028771;28;20057;-79
2022/12/01 09:31:44;;;;;;;46.25;21.05;;;-1.80;99.90;;;;;;5010388;28;20053;-79
2022/12/01 09:34:15;;;;;;;46.28;21.90;;;-1.70;99.90;;;;;;5028233;28;20426;-79
2022/12/01 09:36:43;;;;;;;48.38;20.73;;;-1.80;99.90;;;;;;5012669;28;20144;-78
2022/12/01 09:39:15;;;;;;;46.33;20.75;;;-1.80;99.90;;;;;;5030407;28;20068;-78
2022/12/01 09:41:47;;;;;;;47.50;22.17;;;-1.90;99.90;;;;;;5028883;28;20049;-78
2022/12/01 09:44:22;;;;;;;56.97;22.73;;;-1.90;99.90;;;;;;5028855;28;20430;-78
2022/12/01 09:46:53;;;;;;;46.08;21.33;;;-1.80;99.90;;;;;;5030078;28;20375;-78
2022/12/01 09:49:25;;;;;;;50.67;22.50;;;-1.80;99.90;;;;;;5030279;28;20077;-79
2022/12/01 09:51:54;;;;;;;56.45;22.83;;;-1.80;99.90;;;;;;5012307;28;20045;-79
2022/12/01 09:54:23;;;;;;;56.13;21.73;;;-1.80;99.90;;;;;;5038496;28;20143;-77
2022/12/01 09:56:54;;;;;;;46.72;20.98;;;-1.80;99.90;;;;;;5030092;28;20057;-75
2022/12/01 09:59:25;;;;;;;48.58;20.52;;;-1.70;99.90;;;;;;5053572;28;20054;-75
2022/12/01 10:01:58;;;;;;;47.28;21.60;;;-1.70;99.90;;;;;;5025729;28;20053;-75
2022/12/01 10:04:34;;;;;;;49.40;22.08;;;-1.60;99.90;;;;;;5029521;28;20053;-76
2022/12/01 10:07:05;;;;;;;51.97;20.63;;;-1.70;99.90;;;;;;5060100;28;20042;-75
2022/12/01 10:09:42;;;;;;;51.38;22.23;;;-1.60;99.90;;;;;;5061150;28;20469;-75
2022/12/01 10:12:16;;;;;;;46.67;21.35;;;-1.60;99.90;;;;;;5029909;28;20183;-75
2022/12/01 10:14:46;;;;;;;44.50;20.85;;;-1.60;99.90;;;;;;5029689;28;20486;-75
2022/12/01 10:17:29;;;;;;;55.55;22.27;;;-1.50;99.90;;;;;;5012100;28;20057;-75
2022/12/01 10:20:04;;;;;;;48.22;20.60;;;-1.50;99.90;;;;;;5029952;28;20140;-75
2022/12/01 10:23:19;;;;;;;48.25;22.42;;;-1.50;99.90;;;;;;5027929;28;20620;-75
2022/12/01 10:25:57;;;;;;;48.20;20.15;;;-1.60;99.90;;;;;;5023903;28;20227;-77
2022/12/01 10:28:48;;;;;;;47.05;20.05;;;-1.50;99.90;;;;;;5028666;28;20164;-78
2022/12/01 10:31:21;;;;;;;53.65;19.95;;;-1.30;99.90;;;;;;5028357;28;20152;-76
2022/12/01 10:34:01;;;;;;;50.40;20.88;;;-1.20;99.90;;;;;;5029069;28;20073;-76
2022/12/01 10:36:30;;;;;;;52.58;20.63;;;-1.20;99.90;;;;;;5010204;28;20056;-77
2022/12/01 10:38:58;;;;;;;40.95;20.17;;;-1.10;99.90;;;;;;5024997;28;20042;-77
2022/12/01 10:41:31;;;;;;;46.95;20.70;;;-1.10;99.90;;;;;;5010050;28;20077;-78
2022/12/01 10:44:00;;;;;;;48.40;20.52;;;-1.00;99.90;;;;;;4992113;28;20554;-77
2022/12/01 10:46:34;;;;;;;47.67;20.60;;;-0.90;99.90;;;;;;5028913;28;20363;-77
2022/12/01 10:49:10;;;;;;;52.45;21.35;;;-0.90;99.90;;;;;;5011781;28;20398;-76
2022/12/01 10:51:51;;;;;;;41.58;21.77;;;-0.90;99.90;;;;;;5029565;28;20577;-77
2022/12/01 10:54:20;;;;;;;51.20;22.20;;;-1.10;99.90;;;;;;5029544;28;20073;-77
2022/12/01 10:56:55;;;;;;;50.35;20.73;;;-1.20;99.90;;;;;;5012205;28;20053;-76
2022/12/01 10:59:32;;;;;;;46.58;22.15;;;-1.20;99.90;;;;;;5028082;28;20417;-77
2022/12/01 11:02:02;;;;;;;48.90;21.40;;;-1.10;99.90;;;;;;5035745;28;20461;-77
2022/12/01 11:04:43;;;;;;;48.08;19.10;;;-1.20;99.90;;;;;;5028360;28;20077;-76
2022/12/01 11:07:18;;;;;;;50.45;22.38;;;-1.30;99.90;;;;;;5029072;28;20046;-77
2022/12/01 11:09:54;;;;;;;51.53;21.95;;;-1.20;99.90;;;;;;5029356;28;20057;-78
2022/12/01 11:12:24;;;;;;;42.92;20.00;;;-1.20;99.90;;;;;;5032778;28;20140;-76
2022/12/01 11:14:53;;;;;;;60.47;22.13;;;-1.00;99.90;;;;;;5031125;28;20065;-75
2022/12/01 11:17:31;;;;;;;48.58;20.80;;;-1.00;99.90;;;;;;5029659;28;20103;-79
2022/12/01 11:19:59;;;;;;;66.50;23.05;;;-1.00;99.90;;;;;;5031787;28;20123;-79
2022/12/01 11:22:29;;;;;;;48.10;21.85;;;-0.90;99.90;;;;;;5054996;28;20045;-78
2022/12/01 11:25:03;;;;;;;47.08;20.38;;;-0.90;99.90;;;;;;5051217;28;20106;-79
2022/12/01 11:27:36;;;;;;;47.58;21.38;;;-0.90;99.90;;;;;;5030921;28;20056;-78
2022/12/01 11:30:07;;;;;;;46.72;20.95;;;-0.80;99.90;;;;;;5022995;28;20054;-78
2022/12/01 11:32:39;;;;;;;54.75;20.45;;;-0.90;99.90;;;;;;5034302;28;20053;-78
2022/12/01 11:35:18;;;;;;;53.85;22.15;;;-1.00;99.90;;;;;;5032369;28;20042;-78
2022/12/01 11:37:50;;;;;;;56.30;20.70;;;-1.10;99.90;;;;;;5032219;28;20049;-79
2022/12/01 11:40:25;;;;;;;42.78;18.83;;;-1.10;99.90;;;;;;5014891;28;20072;-80
2022/12/01 11:42:57;;;;;;;54.78;22.15;;;-1.20;99.90;;;;;;5041573;28;20045;-78
2022/12/01 11:45:31;;;;;;;47.05;20.33;;;-1.30;99.90;;;;;;5032781;28;20115;-79
2022/12/01 11:48:01;;;;;;;49.63;20.27;;;-1.40;99.90;;;;;;5032717;28;20045;-78
2022/12/01 11:50:32;;;;;;;48.25;20.98;;;-1.50;99.90;;;;;;5030933;28;20049;-77
2022/12/01 11:53:00;;;;;;;60.85;22.83;;;-1.60;99.90;;;;;;5032370;28;20058;-79
2022/12/01 11:55:29;;;;;;;44.63;20.85;;;-1.60;99.90;;;;;;5031985;28;20052;-80
2022/12/01 11:58:02;;;;;;;55.30;22.42;;;-1.60;99.90;;;;;;5027552;28;20042;-79
2022/12/01 12:00:45;;;;;;;55.67;22.65;;;-1.50;99.90;;;;;;4994021;28;20065;-79
2022/12/01 12:03:24;;;;;;;62.17;22.67;;;-1.50;99.90;;;;;;5006245;28;20052;-78
2022/12/01 12:06:17;;;;;;;68.38;22.42;;;-1.50;99.90;;;;;;5011300;28;20049;-76
2022/12/01 12:09:03;;;;;;;52.08;22.15;;;-1.50;99.90;;;;;;5011459;28;20105;-77
2022/12/01 12:11:44;;;;;;;62.75;21.67;;;-1.40;99.90;;;;;;5011743;28;20049;-78
2022/12/01 12:14:39;;;;;;;61.33;22.33;;;-1.40;99.90;;;;;;5009234;28;20041;-77
2022/12/01 12:17:24;;;;;;;51.10;20.60;;;-1.50;99.90;;;;;;5011271;28;20046;-76
2022/12/01 12:20:28;;;;;;;59.20;21.20;;;-1.60;99.90;;;;;;5012377;28;20065;-77
2022/12/01 12:23:15;;;;;;;47.85;20.42;;;-1.60;99.90;;;;;;5007750;28;20057;-77
2022/12/01 12:25:55;;;;;;;53.40;23.83;;;-1.70;99.90;;;;;;5012421;28;20056;-78
2022/12/01 12:28:43;;;;;;;54.60;23.55;;;-1.80;99.90;;;;;;5011963;28;20100;-78
2022/12/01 12:31:28;;;;;;;52.63;21.40;;;-1.80;99.90;;;;;;5009127;28;20053;-77
2022/12/01 12:34:17;;;;;;;60.33;22.05;;;-1.90;99.90;;;;;;5010188;28;20084;-77
2022/12/01 12:37:01;;;;;;;51.85;22.60;;;-2.00;99.90;;;;;;5011762;28;20092;-76
2022/12/01 12:39:45;;;;;;;;;;;-2.00;99.90;;;;;;5009028;28;20371;-78
2022/12/01 12:42:27;;;;;;;51.28;21.67;;;-2.00;99.90;;;;;;5043266;28;20425;-78
2022/12/01 12:45:04;;;;;;;52.33;22.67;;;-2.10;99.90;;;;;;4991986;28;20109;-76
2022/12/01 12:47:46;;;;;;;49.63;22.15;;;-2.10;99.90;;;;;;5002775;28;20049;-77
2022/12/01 12:50:26;;;;;;;54.25;21.23;;;-2.20;99.90;;;;;;5007989;28;20046;-79
2022/12/01 12:52:58;;;;;;;50.05;21.98;;;-2.30;99.90;;;;;;5002370;28;20076;-79
2022/12/01 12:55:30;;;;;;;62.67;24.17;;;-2.40;99.90;;;;;;5011734;28;20054;-80